createdAt,value
2023-03-22T00:00:15.498Z,133.67
2023-03-22T00:02:43.241Z,122.33
2023-03-22T00:05:11.001Z,116.67
2023-03-22T00:07:58.977Z,123.00
2023-03-22T00:10:29.003Z,87.00
2023-03-22T00:12:57.225Z,109.67
2023-03-22T00:15:24.656Z,123.33
2023-03-22T00:17:53.079Z,116.67
2023-03-22T00:20:23.721Z,116.00
2023-03-22T00:22:51.097Z,103.67
2023-03-22T00:25:21.294Z,126.67
2023-03-22T00:27:48.922Z,92.67
2023-03-22T00:30:16.562Z,86.00
2023-03-22T00:32:45.075Z,97.67
2023-03-22T00:35:12.984Z,81.33
2023-03-22T00:37:40.370Z,94.33
2023-03-22T00:40:11.250Z,95.00
2023-03-22T00:42:40.371Z,97.33
2023-03-22T00:45:11.320Z,90.67
2023-03-22T00:47:39.311Z,111.67
2023-03-22T00:50:07.853Z,100.33
2023-03-22T00:52:35.509Z,114.67
2023-03-22T00:55:03.290Z,118.33
2023-03-22T00:57:31.021Z,106.00
2023-03-22T00:59:58.535Z,106.67
2023-03-22T01:02:29.749Z,101.67
2023-03-22T01:04:57.926Z,102.33
2023-03-22T01:07:28.219Z,111.33
2023-03-22T01:09:55.615Z,125.33
2023-03-22T01:12:23.239Z,103.67
2023-03-22T01:14:50.808Z,104.33
2023-03-22T01:17:19.841Z,110.00
2023-03-22T01:19:47.260Z,110.00
2023-03-22T01:22:14.762Z,103.67
2023-03-22T01:24:44.240Z,96.00
2023-03-22T01:27:11.996Z,112.33
2023-03-22T01:29:39.342Z,102.00
2023-03-22T01:32:06.906Z,81.33
2023-03-22T01:34:34.602Z,95.33
2023-03-22T01:37:02.063Z,105.00
2023-03-22T01:39:29.732Z,106.00
2023-03-22T01:41:57.184Z,98.00
2023-03-22T01:44:24.587Z,97.67
2023-03-22T01:46:52.186Z,110.00
2023-03-22T01:49:34.146Z,102.00
2023-03-22T01:52:06.437Z,94.33
2023-03-22T01:54:50.288Z,94.33
2023-03-22T01:57:18.565Z,88.67
2023-03-22T01:59:47.539Z,98.67
2023-03-22T02:02:22.167Z,94.00
2023-03-22T02:04:58.234Z,94.33
2023-03-22T02:07:28.642Z,92.33
2023-03-22T02:10:23.396Z,89.67
2023-03-22T02:13:14.045Z,84.67
2023-03-22T02:16:14.573Z,85.67
2023-03-22T02:18:57.599Z,92.67
2023-03-22T02:22:02.398Z,82.33
2023-03-22T02:25:05.415Z,90.00
2023-03-22T02:27:41.706Z,87.33
2023-03-22T02:30:33.857Z,88.67
2023-03-22T02:33:35.945Z,88.00
2023-03-22T02:36:19.951Z,87.33
2023-03-22T02:38:59.635Z,84.33
2023-03-22T02:41:33.173Z,86.00
2023-03-22T02:44:17.688Z,83.67
2023-03-22T02:46:52.821Z,82.33
2023-03-22T02:49:36.414Z,82.00
2023-03-22T02:52:17.697Z,80.33
2023-03-22T02:55:09.878Z,73.00
2023-03-22T02:57:54.518Z,85.00
2023-03-22T03:00:22.493Z,74.33
2023-03-22T03:02:55.147Z,81.00
2023-03-22T03:05:26.229Z,85.75
2023-03-22T03:07:59.726Z,82.00
2023-03-22T03:10:33.418Z,82.67
2023-03-22T03:13:01.248Z,83.00
2023-03-22T03:15:28.956Z,75.00
2023-03-22T03:18:19.206Z,73.33
2023-03-22T03:21:05.078Z,73.75
2023-03-22T03:23:54.973Z,81.00
2023-03-22T03:26:52.815Z,77.67
2023-03-22T03:29:24.163Z,84.00
2023-03-22T03:32:15.958Z,80.33
2023-03-22T03:34:49.764Z,20.00
2023-03-22T03:37:22.897Z,78.50
2023-03-22T03:39:59.007Z,75.25
2023-03-22T03:42:28.591Z,78.00
2023-03-22T03:44:56.643Z,73.33
2023-03-22T03:47:26.082Z,80.00
2023-03-22T03:49:53.904Z,81.00
2023-03-22T03:52:24.636Z,78.67
2023-03-22T03:54:52.774Z,85.33
2023-03-22T03:57:22.309Z,76.33
2023-03-22T03:59:50.278Z,86.00
2023-03-22T04:02:17.721Z,90.67
2023-03-22T04:04:45.401Z,82.33
2023-03-22T04:07:12.911Z,84.67
2023-03-22T04:09:40.627Z,93.33
2023-03-22T04:12:12.864Z,86.00
2023-03-22T04:14:41.839Z,81.33
2023-03-22T04:17:09.906Z,81.67
2023-03-22T04:19:38.005Z,84.67
2023-03-22T04:22:05.957Z,91.33
2023-03-22T04:24:33.532Z,90.33
2023-03-22T04:27:01.066Z,91.67
2023-03-22T04:29:32.382Z,86.33
2023-03-22T04:32:00.997Z,67.33
2023-03-22T04:34:28.742Z,83.00
2023-03-22T04:36:56.288Z,84.33
2023-03-22T04:39:23.840Z,79.00
2023-03-22T04:41:51.245Z,82.67
2023-03-22T04:44:20.450Z,83.67
2023-03-22T04:46:47.956Z,88.67
2023-03-22T04:49:15.974Z,86.33
2023-03-22T04:51:43.313Z,81.00
2023-03-22T04:54:10.727Z,82.33
2023-03-22T04:56:38.061Z,87.33
2023-03-22T04:59:05.499Z,85.67
2023-03-22T05:01:40.814Z,86.00
2023-03-22T05:04:08.916Z,83.00
2023-03-22T05:06:36.457Z,82.00
2023-03-22T05:09:08.187Z,86.33
2023-03-22T05:11:37.144Z,84.50
2023-03-22T05:14:04.877Z,84.75
2023-03-22T05:16:33.528Z,83.00
2023-03-22T05:19:02.503Z,78.67
2023-03-22T05:21:36.728Z,74.00
2023-03-22T05:24:04.393Z,79.50
2023-03-22T05:26:31.853Z,85.75
2023-03-22T05:28:59.574Z,80.75
2023-03-22T05:31:28.833Z,82.00
2023-03-22T05:34:04.146Z,78.25
2023-03-22T05:36:36.626Z,88.33
2023-03-22T05:39:04.680Z,82.25
2023-03-22T05:41:36.379Z,143.67
2023-03-22T05:44:05.158Z,96.33
2023-03-22T05:46:36.581Z,83.00
2023-03-22T05:49:03.988Z,71.75
2023-03-22T05:51:32.247Z,76.00
2023-03-22T05:54:00.488Z,84.00
2023-03-22T05:56:27.907Z,82.50
2023-03-22T05:58:58.268Z,75.00
2023-03-22T06:01:25.891Z,79.00
2023-03-22T06:03:53.340Z,80.75
2023-03-22T06:06:20.715Z,80.25
2023-03-22T06:08:48.711Z,78.00
2023-03-22T06:11:22.896Z,70.00
2023-03-22T06:13:50.490Z,76.50
2023-03-22T06:16:17.976Z,76.25
2023-03-22T06:18:46.844Z,75.75
2023-03-22T06:21:14.452Z,75.75
2023-03-22T06:23:43.701Z,72.50
2023-03-22T06:26:11.623Z,82.25
2023-03-22T06:28:39.188Z,73.50
2023-03-22T06:31:08.296Z,78.50
2023-03-22T06:33:37.736Z,82.00
2023-03-22T06:36:05.556Z,74.75
2023-03-22T06:38:33.081Z,78.50
2023-03-22T06:41:00.497Z,75.00
2023-03-22T06:43:27.918Z,74.75
2023-03-22T06:45:57.388Z,90.25
2023-03-22T06:48:24.933Z,81.50
2023-03-22T06:50:52.305Z,78.75
2023-03-22T06:53:20.905Z,74.67
2023-03-22T06:55:48.309Z,71.50
2023-03-22T06:58:15.693Z,79.00
2023-03-22T07:00:43.365Z,78.25
2023-03-22T07:03:10.796Z,78.50
2023-03-22T07:05:39.831Z,75.00
2023-03-22T07:08:07.482Z,66.00
2023-03-22T07:10:38.516Z,73.00
2023-03-22T07:13:07.023Z,77.25
2023-03-22T07:15:35.177Z,92.50
2023-03-22T07:18:08.636Z,97.25
2023-03-22T07:20:41.639Z,145.33
2023-03-22T07:23:10.945Z,114.00
2023-03-22T07:25:38.440Z,89.75
2023-03-22T07:28:07.161Z,89.50
2023-03-22T07:30:37.593Z,85.25
2023-03-22T07:33:10.664Z,93.50
2023-03-22T07:35:38.617Z,88.25
2023-03-22T07:38:06.671Z,87.75
2023-03-22T07:40:34.607Z,96.00
2023-03-22T07:43:02.147Z,107.75
2023-03-22T07:45:29.664Z,90.50
2023-03-22T07:48:17.761Z,95.50
2023-03-22T07:50:45.484Z,82.00
2023-03-22T07:53:13.372Z,81.25
2023-03-22T07:55:42.473Z,84.25
2023-03-22T07:58:10.659Z,83.75
2023-03-22T08:00:38.630Z,76.25
2023-03-22T08:03:07.133Z,77.75
2023-03-22T08:05:35.508Z,77.00
2023-03-22T08:08:03.154Z,76.25
2023-03-22T08:10:32.964Z,64.00
2023-03-22T08:13:01.376Z,76.25
2023-03-22T08:15:28.779Z,70.75
2023-03-22T08:18:00.743Z,67.50
2023-03-22T08:20:28.173Z,67.00
2023-03-22T08:23:01.281Z,54.25
2023-03-22T08:25:29.735Z,64.50
2023-03-22T08:27:57.678Z,62.50
2023-03-22T08:30:26.132Z,67.75
2023-03-22T08:32:53.615Z,59.00
2023-03-22T08:35:22.239Z,51.33
2023-03-22T08:37:53.785Z,52.67
2023-03-22T08:40:23.126Z,45.00
2023-03-22T08:42:51.091Z,43.25
2023-03-22T08:45:18.715Z,25.50
2023-03-22T08:47:46.290Z,33.75
2023-03-22T08:50:13.858Z,32.50
2023-03-22T08:52:42.799Z,32.50
2023-03-22T08:55:10.571Z,41.00
2023-03-22T08:57:50.362Z,38.75
2023-03-22T09:00:19.212Z,41.75
2023-03-22T09:02:47.985Z,35.75
2023-03-22T09:05:15.621Z,47.00
2023-03-22T09:07:47.040Z,42.75
2023-03-22T09:10:15.216Z,44.00
2023-03-22T09:12:43.088Z,43.75
2023-03-22T09:15:41.893Z,44.25
2023-03-22T09:18:10.147Z,38.50
2023-03-22T09:20:38.433Z,36.00
2023-03-22T09:23:06.664Z,45.50
2023-03-22T09:25:34.333Z,44.00
2023-03-22T09:28:02.449Z,34.75
2023-03-22T09:30:32.378Z,37.50
2023-03-22T09:33:02.010Z,37.00
2023-03-22T09:35:30.087Z,32.00
2023-03-22T09:37:59.965Z,32.00
2023-03-22T09:40:30.896Z,39.50
2023-03-22T09:43:03.043Z,40.00
2023-03-22T09:45:39.822Z,41.25
2023-03-22T09:48:17.265Z,41.25
2023-03-22T09:50:48.370Z,34.25
2023-03-22T09:53:17.967Z,31.75
2023-03-22T09:56:17.486Z,36.50
2023-03-22T09:59:06.316Z,39.25
2023-03-22T10:01:48.351Z,29.50
2023-03-22T10:04:21.599Z,38.50
2023-03-22T10:06:59.943Z,36.00
2023-03-22T10:09:42.380Z,30.25
2023-03-22T10:12:32.304Z,34.25
2023-03-22T10:15:26.837Z,29.00
2023-03-22T10:17:57.570Z,32.00
2023-03-22T10:20:32.191Z,27.50
2023-03-22T10:23:03.278Z,29.00
2023-03-22T10:25:38.435Z,14.00
2023-03-22T10:28:21.214Z,37.25
2023-03-22T10:30:54.979Z,38.25
2023-03-22T10:33:50.260Z,34.00
2023-03-22T10:36:24.421Z,28.50
2023-03-22T10:39:00.712Z,22.50
2023-03-22T10:41:33.716Z,23.50
2023-03-22T10:44:02.859Z,15.25
2023-03-22T10:46:40.734Z,17.00
2023-03-22T10:49:17.597Z,17.75
2023-03-22T10:51:59.984Z,21.00
2023-03-22T10:54:28.074Z,18.60
2023-03-22T10:56:56.536Z,15.00
2023-03-22T10:59:52.734Z,19.25
2023-03-22T11:02:24.961Z,15.50
2023-03-22T11:04:57.070Z,26.00
2023-03-22T11:07:28.215Z,10.80
2023-03-22T11:10:24.036Z,15.25
2023-03-22T11:13:14.546Z,13.80
2023-03-22T11:15:52.881Z,16.20
2023-03-22T11:18:20.794Z,18.20
2023-03-22T11:21:07.448Z,19.60
2023-03-22T11:23:39.048Z,21.80
2023-03-22T11:26:10.377Z,19.60
2023-03-22T11:28:43.116Z,26.25
2023-03-22T11:31:21.304Z,32.25
2023-03-22T11:34:01.894Z,28.75
2023-03-22T11:36:30.410Z,27.50
2023-03-22T11:39:07.997Z,31.00
2023-03-22T11:41:37.845Z,36.50
2023-03-22T11:44:10.857Z,39.50
2023-03-22T11:46:48.751Z,18.40
2023-03-22T11:49:18.097Z,23.50
2023-03-22T11:51:53.186Z,23.25
2023-03-22T11:54:31.254Z,22.60
2023-03-22T11:57:03.964Z,24.60
2023-03-22T11:59:59.798Z,27.25
2023-03-22T12:02:32.609Z,23.40
2023-03-22T12:05:12.749Z,21.80
2023-03-22T12:07:41.774Z,27.00
2023-03-22T12:10:25.170Z,26.20
2023-03-22T12:12:59.997Z,20.60
2023-03-22T12:15:40.498Z,22.00
2023-03-22T12:18:48.944Z,22.25
2023-03-22T12:21:16.814Z,18.40
2023-03-22T12:23:44.849Z,21.25
2023-03-22T12:26:12.118Z,19.20
2023-03-22T12:29:06.171Z,22.20
2023-03-22T12:31:39.469Z,22.00
2023-03-22T12:34:14.806Z,20.20
2023-03-22T12:36:50.068Z,22.20
2023-03-22T12:39:30.492Z,24.40
2023-03-22T12:42:04.001Z,20.20
2023-03-22T12:44:40.431Z,17.60
2023-03-22T12:47:19.134Z,14.60
2023-03-22T12:49:54.175Z,14.80
2023-03-22T12:52:45.454Z,15.20
2023-03-22T12:55:34.966Z,15.20
2023-03-22T12:58:06.639Z,10.00
2023-03-22T13:00:40.807Z,14.20
2023-03-22T13:03:25.198Z,12.60
2023-03-22T13:06:05.142Z,13.20
2023-03-22T13:09:02.537Z,11.40
2023-03-22T13:11:32.117Z,9.20
2023-03-22T13:14:00.274Z,20.00
2023-03-22T13:17:06.831Z,14.00
2023-03-22T13:19:38.610Z,13.60
2023-03-22T13:22:22.238Z,14.40
2023-03-22T13:25:06.281Z,8.80
2023-03-22T13:27:37.978Z,10.60
2023-03-22T13:30:21.823Z,10.20
2023-03-22T13:33:09.951Z,14.20
2023-03-22T13:35:54.393Z,13.80
2023-03-22T13:38:22.432Z,12.60
2023-03-22T13:41:44.913Z,11.40
2023-03-22T13:44:27.022Z,10.80
2023-03-22T13:47:02.462Z,14.00
2023-03-22T13:49:53.410Z,18.00
2023-03-22T13:52:27.433Z,12.60
2023-03-22T13:54:57.677Z,14.80
2023-03-22T13:57:49.343Z,12.20
2023-03-22T14:00:36.416Z,14.20
2023-03-22T14:03:23.739Z,15.60
2023-03-22T14:06:10.939Z,14.60
2023-03-22T14:08:45.987Z,9.80
2023-03-22T14:11:20.802Z,11.60
2023-03-22T14:13:53.775Z,9.00
2023-03-22T14:16:46.034Z,7.20
2023-03-22T14:19:21.954Z,12.80
